createdAt,value
2022-10-31T00:00:56.770Z,35.03
2022-10-31T00:02:59.302Z,35.95
2022-10-31T00:05:01.652Z,35.22
2022-10-31T00:07:05.778Z,34.75
2022-10-31T00:09:07.843Z,34.80
2022-10-31T00:11:11.396Z,36.25
2022-10-31T00:13:15.346Z,39.13
2022-10-31T00:15:17.568Z,38.13
2022-10-31T00:17:19.927Z,37.53
2022-10-31T00:19:21.925Z,37.28
2022-10-31T00:21:25.197Z,37.25
2022-10-31T00:23:27.171Z,35.80
2022-10-31T00:25:30.595Z,37.83
2022-10-31T00:27:32.832Z,39.20
2022-10-31T00:29:35.048Z,34.78
2022-10-31T00:31:37.078Z,35.83
2022-10-31T00:33:41.044Z,35.65
2022-10-31T00:35:42.961Z,51.65
2022-10-31T00:37:45.109Z,66.57
2022-10-31T00:39:48.882Z,70.20
2022-10-31T00:41:53.376Z,69.65
2022-10-31T00:43:55.701Z,99.63
2022-10-31T00:45:57.842Z,114.32
2022-10-31T00:48:00.498Z,141.43
2022-10-31T00:50:03.273Z,121.40
2022-10-31T00:52:05.209Z,98.15
2022-10-31T00:54:07.515Z,72.70
2022-10-31T00:56:10.495Z,58.10
2022-10-31T00:58:12.640Z,48.53
2022-10-31T01:00:15.847Z,46.70
2022-10-31T01:02:18.206Z,45.25
2022-10-31T01:04:20.273Z,56.15
2022-10-31T01:06:22.255Z,59.17
2022-10-31T01:08:24.440Z,53.58
2022-10-31T01:10:26.675Z,52.97
2022-10-31T01:12:29.133Z,45.58
2022-10-31T01:14:32.585Z,45.92
2022-10-31T01:16:34.784Z,45.95
2022-10-31T01:18:40.327Z,47.38
2022-10-31T01:20:46.391Z,48.92
2022-10-31T01:22:48.630Z,61.47
2022-10-31T01:24:50.700Z,92.32
2022-10-31T01:26:54.828Z,93.97
2022-10-31T01:29:05.141Z,79.93
2022-10-31T01:31:10.027Z,73.18
2022-10-31T01:33:12.330Z,85.03
2022-10-31T01:35:14.477Z,83.72
2022-10-31T01:37:16.768Z,88.47
2022-10-31T01:39:22.126Z,144.93
2022-10-31T01:41:27.748Z,134.43
2022-10-31T01:43:54.031Z,125.18
2022-10-31T01:45:56.239Z,219.35
2022-10-31T01:47:59.016Z,174.25
2022-10-31T01:50:05.724Z,223.82
2022-10-31T01:52:13.929Z,238.70
2022-10-31T01:54:19.579Z,204.68
2022-10-31T01:56:22.855Z,153.98
2022-10-31T01:58:28.905Z,144.25
2022-10-31T02:00:33.308Z,120.15
2022-10-31T02:02:37.427Z,105.57
2022-10-31T02:04:41.395Z,103.53
2022-10-31T02:06:59.834Z,100.28
2022-10-31T02:09:04.804Z,107.63
2022-10-31T02:11:08.515Z,113.88
2022-10-31T02:13:14.074Z,160.13
2022-10-31T02:15:22.025Z,110.80
2022-10-31T02:17:24.863Z,106.18
2022-10-31T02:19:45.054Z,80.90
2022-10-31T02:22:12.994Z,87.57
2022-10-31T02:25:00.111Z,68.00
2022-10-31T02:27:13.821Z,56.85
2022-10-31T02:29:27.710Z,57.97
2022-10-31T02:31:47.663Z,65.43
2022-10-31T02:33:57.574Z,71.28
2022-10-31T02:36:28.459Z,66.10
2022-10-31T02:39:10.951Z,52.35
2022-10-31T02:41:29.366Z,51.13
2022-10-31T02:43:58.640Z,49.05
2022-10-31T02:46:32.050Z,46.40
2022-10-31T02:48:38.374Z,56.03
2022-10-31T02:50:46.347Z,56.78
2022-10-31T02:52:52.871Z,60.53
2022-10-31T02:54:55.294Z,63.47
2022-10-31T02:57:07.343Z,64.72
2022-10-31T02:59:12.229Z,68.15
2022-10-31T03:01:40.634Z,135.30
2022-10-31T03:04:08.106Z,273.10
2022-10-31T03:06:37.470Z,328.95
2022-10-31T03:08:57.110Z,246.85
2022-10-31T03:11:05.959Z,216.52
2022-10-31T03:13:20.817Z,274.83
2022-10-31T03:15:31.905Z,344.42
2022-10-31T03:17:54.949Z,370.23
2022-10-31T03:20:01.645Z,369.77
2022-10-31T03:22:11.639Z,329.17
2022-10-31T03:24:15.867Z,299.92
2022-10-31T03:26:18.861Z,246.10
2022-10-31T03:28:27.121Z,163.07
2022-10-31T03:30:30.494Z,111.05
2022-10-31T03:32:43.149Z,95.85
2022-10-31T03:34:47.282Z,79.85
2022-10-31T03:36:55.928Z,72.25
2022-10-31T03:39:00.138Z,94.07
2022-10-31T03:41:06.914Z,86.07
2022-10-31T03:43:20.338Z,91.30
2022-10-31T03:45:31.452Z,94.38
2022-10-31T03:47:35.868Z,83.60
2022-10-31T03:49:38.496Z,70.38
2022-10-31T03:51:50.359Z,63.42
2022-10-31T03:54:02.268Z,54.08
2022-10-31T03:56:14.275Z,52.72
2022-10-31T03:58:25.449Z,60.38
2022-10-31T04:00:30.866Z,75.68
2022-10-31T04:02:36.431Z,70.10
2022-10-31T04:04:40.621Z,58.92
2022-10-31T04:06:45.591Z,60.17
2022-10-31T04:08:55.391Z,84.63
2022-10-31T04:11:00.664Z,83.15
2022-10-31T04:13:08.958Z,55.35
2022-10-31T04:15:26.490Z,45.80
2022-10-31T04:17:33.382Z,39.75
2022-10-31T04:19:37.783Z,40.88
2022-10-31T04:21:40.428Z,39.05
2022-10-31T04:23:42.914Z,62.65
2022-10-31T04:26:03.341Z,126.95
2022-10-31T04:28:08.443Z,117.85
2022-10-31T04:30:14.035Z,92.97
2022-10-31T04:32:16.540Z,91.65
2022-10-31T04:34:18.702Z,78.18
2022-10-31T04:36:45.902Z,109.10
2022-10-31T04:38:51.139Z,99.72
2022-10-31T04:41:07.402Z,93.43
2022-10-31T04:43:38.173Z,77.53
2022-10-31T04:45:40.678Z,71.30
2022-10-31T04:47:44.060Z,96.80
2022-10-31T04:49:46.356Z,131.25
2022-10-31T04:51:49.118Z,126.03
2022-10-31T04:57:51.910Z,59.33
2022-10-31T04:59:55.196Z,59.53
2022-10-31T05:01:58.955Z,58.58
2022-10-31T05:04:16.564Z,50.83
2022-10-31T05:06:18.659Z,45.78
2022-10-31T05:08:21.667Z,46.20
2022-10-31T05:10:29.387Z,43.40
2022-10-31T05:12:33.877Z,41.05
2022-10-31T05:14:44.748Z,35.45
2022-10-31T05:17:15.703Z,32.53
2022-10-31T05:19:36.099Z,31.40
2022-10-31T05:21:58.236Z,30.45
2022-10-31T05:24:00.594Z,33.65
2022-10-31T05:26:03.553Z,26.35
2022-10-31T05:28:05.409Z,26.15
2022-10-31T05:30:09.175Z,25.55
2022-10-31T05:32:11.739Z,22.75
2022-10-31T05:34:48.661Z,54.83
2022-10-31T05:37:25.904Z,40.97
2022-10-31T05:39:27.811Z,37.38
2022-10-31T05:41:34.438Z,31.00
2022-10-31T05:43:51.460Z,36.65
2022-10-31T05:45:58.485Z,34.88
2022-10-31T05:48:18.879Z,31.33
2022-10-31T05:50:43.663Z,29.42
2022-10-31T05:52:46.582Z,24.73
2022-10-31T05:54:55.883Z,24.88
2022-10-31T05:56:57.742Z,22.08
2022-10-31T05:59:00.329Z,23.25
2022-10-31T06:01:02.653Z,22.83
2022-10-31T06:05:30.874Z,26.85
2022-10-31T06:07:34.998Z,24.35
2022-10-31T06:09:36.917Z,22.58
2022-10-31T06:11:38.917Z,21.35
2022-10-31T06:13:40.764Z,19.88
2022-10-31T06:15:51.475Z,21.52
2022-10-31T06:18:05.288Z,26.38
2022-10-31T06:20:14.555Z,24.88
2022-10-31T06:22:29.209Z,25.45
2022-10-31T06:24:31.385Z,27.27
2022-10-31T06:26:40.709Z,23.45
2022-10-31T06:28:43.994Z,28.85
2022-10-31T06:30:57.739Z,41.00
2022-10-31T06:33:06.481Z,53.88
2022-10-31T06:35:12.259Z,73.55
2022-10-31T06:37:16.721Z,77.43
2022-10-31T06:39:21.855Z,74.68
2022-10-31T06:41:24.495Z,57.67
2022-10-31T06:43:27.613Z,50.20
2022-10-31T06:46:05.870Z,55.75
2022-10-31T06:48:18.047Z,66.68
2022-10-31T06:50:46.005Z,63.95
2022-10-31T06:52:56.657Z,64.43
2022-10-31T06:54:58.974Z,54.75
2022-10-31T06:57:00.949Z,51.58
2022-10-31T06:59:03.992Z,38.50
2022-10-31T07:01:24.543Z,36.38
2022-10-31T07:03:26.602Z,29.35
2022-10-31T07:05:29.763Z,28.63
2022-10-31T07:07:32.409Z,27.92
2022-10-31T07:09:34.559Z,27.45
2022-10-31T07:11:39.960Z,38.83
2022-10-31T07:13:42.622Z,34.97
2022-10-31T07:15:46.280Z,30.83
2022-10-31T07:17:48.846Z,31.92
2022-10-31T07:19:50.915Z,32.03
2022-10-31T07:21:53.255Z,34.25
2022-10-31T07:23:55.193Z,30.73
2022-10-31T07:26:15.567Z,30.42
2022-10-31T07:28:23.748Z,28.30
2022-10-31T07:30:27.564Z,22.63
2022-10-31T07:32:41.005Z,22.15
2022-10-31T07:34:46.615Z,19.48
2022-10-31T07:37:04.764Z,20.92
2022-10-31T07:39:06.986Z,22.63
2022-10-31T07:41:10.966Z,21.67
2022-10-31T07:43:17.141Z,20.15
2022-10-31T07:45:38.090Z,21.13
2022-10-31T07:47:59.260Z,21.70
2022-10-31T07:50:25.495Z,19.17
2022-10-31T07:52:46.181Z,21.88
2022-10-31T07:55:19.149Z,22.20
2022-10-31T07:57:25.141Z,23.35
2022-10-31T07:59:28.339Z,23.23
2022-10-31T08:01:30.680Z,22.15
2022-10-31T08:03:54.357Z,26.52
2022-10-31T08:06:15.062Z,48.60
2022-10-31T08:08:22.747Z,37.53
2022-10-31T08:10:25.738Z,32.13
2022-10-31T08:12:27.735Z,28.45
2022-10-31T08:14:29.667Z,25.25
2022-10-31T08:16:32.841Z,24.83
2022-10-31T08:18:38.556Z,24.35
2022-10-31T08:20:44.625Z,23.27
2022-10-31T08:23:02.564Z,21.88
2022-10-31T08:25:05.507Z,23.77
2022-10-31T08:27:07.416Z,25.45
2022-10-31T08:29:09.356Z,27.75
2022-10-31T08:31:12.894Z,32.80
2022-10-31T08:33:19.429Z,30.30
2022-10-31T08:35:40.706Z,29.67
2022-10-31T08:38:15.405Z,31.27
2022-10-31T08:40:18.507Z,27.67
2022-10-31T08:42:20.556Z,28.95
2022-10-31T08:44:23.158Z,28.55
2022-10-31T08:46:25.275Z,28.48
2022-10-31T08:48:27.589Z,30.65
2022-10-31T08:50:31.325Z,31.50
2022-10-31T08:52:58.887Z,29.33
2022-10-31T08:54:55.859Z,28.95
2022-10-31T08:57:23.993Z,27.90
2022-10-31T08:59:26.158Z,29.02
2022-10-31T09:01:47.293Z,33.35
2022-10-31T09:03:50.096Z,28.83
2022-10-31T09:05:56.717Z,29.98
2022-10-31T09:08:00.677Z,28.95
2022-10-31T09:10:03.730Z,29.27
2022-10-31T09:12:09.333Z,30.33
2022-10-31T09:14:32.992Z,30.48
2022-10-31T09:16:58.124Z,30.60
2022-10-31T09:19:11.345Z,35.17
2022-10-31T09:21:14.191Z,34.97
2022-10-31T09:23:22.590Z,35.03
2022-10-31T09:25:24.872Z,34.80
2022-10-31T09:27:41.650Z,34.45
2022-10-31T09:29:43.688Z,33.30
2022-10-31T09:31:47.704Z,32.17
2022-10-31T09:34:04.226Z,31.08
2022-10-31T09:36:12.240Z,29.60
2022-10-31T09:38:20.399Z,30.50
2022-10-31T09:40:23.362Z,47.22
2022-10-31T09:42:49.283Z,46.20
2022-10-31T09:45:04.536Z,38.88
2022-10-31T09:47:14.496Z,44.97
2022-10-31T09:49:38.868Z,46.38
2022-10-31T09:51:52.945Z,41.75
2022-10-31T09:54:19.604Z,36.50
2022-10-31T09:56:23.999Z,39.33
2022-10-31T09:58:30.703Z,32.58
2022-10-31T10:00:34.391Z,37.45
2022-10-31T10:02:52.690Z,42.05
2022-10-31T10:05:09.738Z,39.25
2022-10-31T10:07:53.533Z,49.67
2022-10-31T10:10:46.911Z,49.33
2022-10-31T10:13:38.539Z,42.97
2022-10-31T10:15:43.790Z,59.28
2022-10-31T10:18:09.096Z,75.28
2022-10-31T10:20:27.243Z,78.03
2022-10-31T10:22:41.116Z,48.85
2022-10-31T10:24:57.120Z,35.78
2022-10-31T10:27:26.810Z,26.38
2022-10-31T10:29:35.722Z,22.33
2022-10-31T10:31:46.706Z,23.48
2022-10-31T10:34:11.678Z,19.83
2022-10-31T10:36:35.819Z,22.83
2022-10-31T10:38:52.460Z,21.63
2022-10-31T10:40:55.362Z,21.48
2022-10-31T10:43:16.094Z,21.95
2022-10-31T10:45:39.333Z,27.25
2022-10-31T10:47:45.241Z,25.77
2022-10-31T10:49:52.713Z,31.55
2022-10-31T10:54:55.886Z,52.45
2022-10-31T10:57:25.257Z,52.03
2022-10-31T10:59:28.279Z,44.00
2022-10-31T11:01:30.708Z,52.78
2022-10-31T11:03:36.561Z,58.83
2022-10-31T11:05:51.274Z,61.47
2022-10-31T11:07:54.335Z,77.82
2022-10-31T11:10:09.093Z,75.35
2022-10-31T11:12:31.609Z,64.40
2022-10-31T11:14:44.033Z,37.22
2022-10-31T11:16:48.942Z,28.17
2022-10-31T11:18:51.005Z,27.23
2022-10-31T11:20:56.123Z,22.00
2022-10-31T11:23:21.283Z,20.75
2022-10-31T11:25:24.720Z,20.73
2022-10-31T11:27:27.495Z,20.95
2022-10-31T11:29:29.480Z,22.20
2022-10-31T11:31:32.152Z,22.75
2022-10-31T11:33:39.289Z,29.50
2022-10-31T11:35:41.365Z,32.83
2022-10-31T11:37:45.689Z,39.33
2022-10-31T11:39:54.901Z,52.03
2022-10-31T11:42:06.237Z,61.67
2022-10-31T11:44:19.118Z,84.63
2022-10-31T11:46:28.976Z,79.35
2022-10-31T11:48:31.104Z,76.70
2022-10-31T11:50:43.587Z,57.33
2022-10-31T11:52:46.081Z,57.20
2022-10-31T11:54:55.784Z,40.15
2022-10-31T11:56:58.231Z,46.33
2022-10-31T11:59:04.385Z,41.28
2022-10-31T12:01:06.860Z,46.60
2022-10-31T12:03:15.267Z,40.28
2022-10-31T12:05:26.209Z,42.85
2022-10-31T12:08:09.140Z,45.70
2022-10-31T12:10:13.067Z,48.08
2022-10-31T12:12:34.333Z,63.40
2022-10-31T12:14:42.135Z,69.88
2022-10-31T12:16:55.349Z,74.03
2022-10-31T12:19:12.455Z,66.57
2022-10-31T12:21:24.317Z,73.13
2022-10-31T12:23:50.694Z,64.88
2022-10-31T12:26:04.971Z,79.22
2022-10-31T12:28:31.775Z,67.30
2022-10-31T12:31:11.281Z,64.00
2022-10-31T12:33:34.837Z,59.17
2022-10-31T12:36:14.412Z,46.38
2022-10-31T12:38:54.988Z,73.18
2022-10-31T12:41:08.152Z,73.03
2022-10-31T12:43:28.599Z,63.05
2022-10-31T12:45:52.184Z,51.22
2022-10-31T12:48:57.453Z,51.38
2022-10-31T12:51:21.987Z,55.88
2022-10-31T12:54:00.810Z,59.70
2022-10-31T12:56:16.964Z,62.28
2022-10-31T12:58:25.684Z,63.65
2022-10-31T13:00:30.465Z,61.33
2022-10-31T13:02:45.667Z,73.00
2022-10-31T13:04:59.602Z,70.35
2022-10-31T13:07:08.864Z,69.47
2022-10-31T13:09:16.920Z,51.35
2022-10-31T13:11:32.006Z,51.38
2022-10-31T13:14:09.368Z,33.08
2022-10-31T13:16:18.736Z,41.47
2022-10-31T13:18:34.736Z,39.03
2022-10-31T13:20:49.357Z,33.55
2022-10-31T13:23:17.637Z,29.83
2022-10-31T13:25:29.986Z,26.90
2022-10-31T13:27:59.247Z,28.90
2022-10-31T13:30:26.318Z,26.52
2022-10-31T13:32:38.793Z,26.63
2022-10-31T13:34:47.060Z,24.65
2022-10-31T13:37:22.990Z,26.00
2022-10-31T13:39:40.277Z,22.88
2022-10-31T13:41:51.064Z,25.73
2022-10-31T13:44:07.359Z,24.75
2022-10-31T13:46:25.433Z,23.25
2022-10-31T13:48:43.367Z,22.65
2022-10-31T13:51:03.847Z,23.60
2022-10-31T13:53:17.849Z,23.25
2022-10-31T13:55:47.176Z,24.42
2022-10-31T13:57:49.431Z,21.48
2022-10-31T13:59:58.217Z,23.10
2022-10-31T14:02:03.564Z,22.23
2022-10-31T14:04:14.874Z,24.15
2022-10-31T14:06:48.261Z,27.00
2022-10-31T14:09:27.853Z,25.05
2022-10-31T14:11:34.502Z,35.22
2022-10-31T14:13:45.810Z,34.70
2022-10-31T14:16:06.266Z,35.50
2022-10-31T14:18:31.286Z,51.80
2022-10-31T14:20:43.238Z,46.03
2022-10-31T14:22:48.356Z,38.78
2022-10-31T14:24:51.665Z,40.58
2022-10-31T14:26:59.336Z,36.35
2022-10-31T14:29:16.912Z,37.65
2022-10-31T14:31:42.352Z,38.15
2022-10-31T14:33:45.508Z,38.95
2022-10-31T14:35:59.706Z,31.85
2022-10-31T14:38:16.000Z,32.58
2022-10-31T14:40:37.167Z,31.33
2022-10-31T14:43:03.847Z,30.08
2022-10-31T14:45:17.103Z,29.08
2022-10-31T14:47:37.408Z,28.95
2022-10-31T14:50:08.312Z,34.65
2022-10-31T14:52:17.877Z,28.13
2022-10-31T14:54:28.788Z,26.38
2022-10-31T14:56:37.217Z,26.02
2022-10-31T14:58:46.836Z,25.67
2022-10-31T15:00:50.678Z,23.05
2022-10-31T15:03:19.763Z,23.92
2022-10-31T15:05:22.695Z,24.00
2022-10-31T15:07:26.781Z,24.00
2022-10-31T15:10:01.012Z,24.15
2022-10-31T15:12:22.764Z,25.40
2022-10-31T15:14:31.224Z,25.23
2022-10-31T15:16:37.054Z,24.10
2022-10-31T15:18:50.323Z,24.08
2022-10-31T15:20:54.830Z,24.38
2022-10-31T15:22:58.453Z,24.98
2022-10-31T15:25:00.662Z,24.27
2022-10-31T15:27:05.226Z,25.17
2022-10-31T15:29:14.610Z,31.88
2022-10-31T15:31:18.493Z,30.52
2022-10-31T15:33:37.902Z,32.00
2022-10-31T15:35:41.305Z,31.63
2022-10-31T15:37:43.566Z,37.45
2022-10-31T15:39:47.593Z,36.90
2022-10-31T15:41:56.147Z,36.67
2022-10-31T15:44:04.457Z,35.83
2022-10-31T15:46:11.307Z,36.10
2022-10-31T15:48:35.616Z,33.85
2022-10-31T15:50:41.674Z,34.22
2022-10-31T15:52:49.003Z,39.40
2022-10-31T15:54:57.174Z,37.70
2022-10-31T15:56:59.465Z,39.17
2022-10-31T15:59:03.324Z,41.92
2022-10-31T16:01:08.006Z,38.47
2022-10-31T16:03:18.851Z,39.55
2022-10-31T16:05:21.331Z,38.13
2022-10-31T16:07:24.366Z,37.03
2022-10-31T16:09:26.906Z,35.80
2022-10-31T16:11:40.008Z,37.65
2022-10-31T16:13:58.425Z,40.85
2022-10-31T16:16:32.934Z,39.85
2022-10-31T16:18:27.887Z,39.65
2022-10-31T16:20:33.111Z,37.75
2022-10-31T16:22:39.727Z,37.25
2022-10-31T16:24:56.984Z,35.33
2022-10-31T16:27:08.169Z,41.22
2022-10-31T16:29:29.606Z,46.53
2022-10-31T16:31:40.670Z,56.28
2022-10-31T16:33:43.321Z,44.03
2022-10-31T16:35:45.362Z,39.47
2022-10-31T16:37:47.865Z,41.28
2022-10-31T16:39:50.349Z,41.67
2022-10-31T16:45:27.131Z,47.63
2022-10-31T16:47:29.692Z,36.10
2022-10-31T16:49:31.611Z,35.50
2022-10-31T16:51:33.594Z,30.65
2022-10-31T16:53:35.987Z,32.70
2022-10-31T16:55:55.220Z,32.88
2022-10-31T16:57:59.408Z,35.00
2022-10-31T17:00:01.798Z,64.78
2022-10-31T17:02:05.487Z,58.30
2022-10-31T17:04:12.247Z,86.18
2022-10-31T17:06:15.277Z,66.80
2022-10-31T17:08:17.667Z,62.10
2022-10-31T17:10:22.058Z,69.82
2022-10-31T17:12:27.929Z,68.60
2022-10-31T17:14:30.467Z,72.30
2022-10-31T17:16:32.633Z,64.55
2022-10-31T17:18:34.594Z,59.05
2022-10-31T17:20:37.201Z,51.58
2022-10-31T17:24:42.228Z,45.58
2022-10-31T17:26:44.130Z,45.67
2022-10-31T17:28:46.721Z,45.28
2022-10-31T17:30:48.666Z,44.75
2022-10-31T17:32:51.784Z,60.97
2022-10-31T17:34:53.456Z,71.30
2022-10-31T17:36:55.214Z,69.22
2022-10-31T17:38:57.435Z,62.20
2022-10-31T17:40:59.329Z,66.45
2022-10-31T17:43:01.390Z,78.00
2022-10-31T17:45:04.550Z,91.70
2022-10-31T17:47:06.767Z,123.95
2022-10-31T17:49:09.269Z,107.43
2022-10-31T17:51:11.508Z,100.03
2022-10-31T17:53:13.228Z,66.85
2022-10-31T17:55:16.213Z,55.38
2022-10-31T17:57:18.830Z,47.92
2022-10-31T17:59:20.861Z,53.58
2022-10-31T18:01:22.722Z,55.28
2022-10-31T18:03:25.386Z,47.28
2022-10-31T18:05:27.299Z,45.00
2022-10-31T18:07:29.158Z,45.72
2022-10-31T18:09:31.130Z,43.78
2022-10-31T18:11:33.290Z,41.90
2022-10-31T18:13:35.907Z,42.30
2022-10-31T18:15:40.891Z,39.88
2022-10-31T18:17:42.834Z,41.35
2022-10-31T18:19:46.154Z,41.85
2022-10-31T18:21:48.139Z,43.70
2022-10-31T18:23:54.918Z,42.38
2022-10-31T18:25:57.487Z,40.65
2022-10-31T18:27:59.513Z,42.28
2022-10-31T18:30:01.554Z,51.05
2022-10-31T18:32:09.075Z,61.42
2022-10-31T18:34:11.107Z,56.58
2022-10-31T18:36:13.487Z,49.40
2022-10-31T18:38:15.273Z,45.42
2022-10-31T18:40:17.593Z,43.90
2022-10-31T18:42:19.553Z,48.72
2022-10-31T18:44:21.570Z,49.53
2022-10-31T18:46:23.284Z,46.10
2022-10-31T18:48:25.217Z,44.58
2022-10-31T18:50:27.346Z,42.45
2022-10-31T18:52:32.366Z,39.22
2022-10-31T18:54:34.475Z,42.80
2022-10-31T18:56:38.002Z,40.30
2022-10-31T19:02:40.298Z,57.70
2022-10-31T19:04:42.213Z,71.13
2022-10-31T19:06:44.036Z,60.42
2022-10-31T19:08:46.038Z,54.22
2022-10-31T19:10:48.261Z,46.75
2022-10-31T19:12:50.182Z,42.70
2022-10-31T19:18:46.542Z,41.78
2022-10-31T19:20:48.447Z,39.70
2022-10-31T19:22:53.133Z,40.03
2022-10-31T19:24:54.898Z,40.65
2022-10-31T19:26:56.753Z,45.22
2022-10-31T19:28:58.801Z,99.57
2022-10-31T19:31:03.978Z,98.00
2022-10-31T19:33:06.070Z,91.60
2022-10-31T19:35:09.406Z,69.28
2022-10-31T19:37:11.569Z,55.60
2022-10-31T19:39:13.526Z,51.10
2022-10-31T19:41:26.264Z,49.53
2022-10-31T19:43:28.679Z,48.33
2022-10-31T19:48:53.029Z,41.90
2022-10-31T19:51:01.813Z,40.10
2022-10-31T19:53:06.272Z,50.40
2022-10-31T19:55:08.659Z,48.78
2022-10-31T19:57:10.773Z,63.70
2022-10-31T19:59:12.959Z,56.67
2022-10-31T20:01:16.476Z,55.45
2022-10-31T20:03:21.596Z,60.35
2022-10-31T20:05:24.602Z,61.97
2022-10-31T20:07:26.643Z,54.38
2022-10-31T20:09:28.782Z,114.53
2022-10-31T20:11:31.438Z,98.85
2022-10-31T20:13:33.980Z,81.75
2022-10-31T20:15:36.115Z,73.25
2022-10-31T20:17:38.885Z,70.78
2022-10-31T20:19:41.320Z,67.95
2022-10-31T20:21:43.411Z,81.45
2022-10-31T20:23:47.296Z,91.97
2022-10-31T20:25:50.238Z,75.25
2022-10-31T20:27:52.199Z,58.10
2022-10-31T20:29:54.258Z,83.28
2022-10-31T20:31:57.449Z,90.38
2022-10-31T20:34:01.932Z,67.45
2022-10-31T20:36:05.546Z,57.28
2022-10-31T20:38:08.643Z,46.58
2022-10-31T20:40:11.368Z,43.75
2022-10-31T20:42:13.816Z,41.92
2022-10-31T20:44:16.214Z,42.35
2022-10-31T20:46:21.299Z,39.60
2022-10-31T20:48:24.857Z,39.80
2022-10-31T20:50:26.998Z,45.00
2022-10-31T20:52:28.957Z,44.45
2022-10-31T20:54:33.305Z,44.25
2022-10-31T20:56:35.415Z,41.83
2022-10-31T20:58:39.027Z,40.58
2022-10-31T21:00:40.856Z,38.10
2022-10-31T21:02:43.861Z,40.13
2022-10-31T21:04:45.804Z,43.72
2022-10-31T21:06:49.581Z,54.88
2022-10-31T21:08:52.526Z,55.35
2022-10-31T21:10:55.101Z,62.05
2022-10-31T21:12:57.253Z,58.58
2022-10-31T21:14:59.395Z,53.65
2022-10-31T21:17:01.527Z,47.95
2022-10-31T21:19:05.091Z,48.58
2022-10-31T21:21:13.080Z,48.67
2022-10-31T21:23:15.106Z,48.88
2022-10-31T21:25:18.543Z,54.40
2022-10-31T21:27:20.610Z,46.38
2022-10-31T21:29:22.549Z,48.55
2022-10-31T21:32:14.321Z,41.50
2022-10-31T21:34:16.707Z,39.63
2022-10-31T21:36:19.083Z,36.45
2022-10-31T21:38:21.124Z,37.25
2022-10-31T21:40:23.123Z,34.72
2022-10-31T21:42:25.164Z,34.63
2022-10-31T21:44:27.200Z,34.72
2022-10-31T21:46:31.365Z,34.50
2022-10-31T21:48:34.327Z,33.78
2022-10-31T21:50:36.339Z,46.38
2022-10-31T21:52:38.648Z,45.15
2022-10-31T21:54:40.535Z,45.72
2022-10-31T21:56:59.301Z,45.97
2022-10-31T21:59:02.100Z,42.83
2022-10-31T22:01:29.746Z,41.63
2022-10-31T22:03:36.176Z,38.95
2022-10-31T22:05:38.379Z,37.90
2022-10-31T22:07:40.433Z,46.72
2022-10-31T22:09:47.330Z,44.50
2022-10-31T22:11:49.630Z,36.75
2022-10-31T22:13:54.274Z,41.00
2022-10-31T22:16:00.912Z,36.78
2022-10-31T22:18:05.545Z,35.95
2022-10-31T22:20:08.664Z,41.42
2022-10-31T22:22:13.196Z,41.63
2022-10-31T22:24:16.920Z,37.92
2022-10-31T22:26:21.941Z,36.53
2022-10-31T22:28:24.041Z,35.25
2022-10-31T22:30:25.940Z,34.95
2022-10-31T22:32:28.394Z,35.88
2022-10-31T22:34:32.725Z,36.42
2022-10-31T22:36:35.059Z,34.92
2022-10-31T22:38:40.407Z,35.53
2022-10-31T22:40:42.554Z,35.83
2022-10-31T22:42:44.538Z,33.88
2022-10-31T22:44:46.649Z,32.45
2022-10-31T22:46:49.140Z,32.30
2022-10-31T22:49:00.181Z,31.00
2022-10-31T22:51:07.403Z,32.95
2022-10-31T22:53:13.522Z,31.65
2022-10-31T22:55:17.490Z,35.58
2022-10-31T22:57:19.768Z,32.17
2022-10-31T22:59:21.870Z,31.88
2022-10-31T23:01:27.136Z,29.30
2022-10-31T23:03:29.439Z,29.35
2022-10-31T23:05:31.476Z,29.90
2022-10-31T23:07:33.550Z,27.83
2022-10-31T23:09:35.992Z,30.13
2022-10-31T23:11:39.885Z,29.38
2022-10-31T23:14:00.510Z,30.02
2022-10-31T23:16:05.609Z,28.83
2022-10-31T23:18:14.587Z,27.65
2022-10-31T23:20:26.455Z,26.98
2022-10-31T23:22:28.429Z,30.67
2022-10-31T23:24:41.740Z,28.27
2022-10-31T23:33:40.912Z,27.48
2022-10-31T23:35:43.886Z,27.55
2022-10-31T23:37:45.978Z,26.10
2022-10-31T23:39:50.801Z,29.30
2022-10-31T23:41:56.075Z,28.67
2022-10-31T23:43:58.322Z,25.73
2022-10-31T23:46:00.309Z,26.58
2022-10-31T23:48:02.603Z,26.10
2022-10-31T23:50:05.320Z,26.63
2022-10-31T23:52:07.495Z,24.98
2022-10-31T23:54:09.783Z,27.27
2022-10-31T23:56:12.436Z,26.15
2022-10-31T23:58:15.879Z,25.23
